Time;durP1;ratioP1;P1;durP2;ratioP2;P2;SDS_P1;SDS_P2;PMS_P1;PMS_P2;Temp;Humidity;BMP_temperature;BMP_pressure;BME280_temperature;BME280_humidity;BME280_pressure;Samples;Min_cycle;Max_cycle;Signal;HPM_P1;HPM_P2
2022/03/06 00:00:17;;;;;;;25.42;19.38;;;;;;;0.32;85.87;102681.41;5025604;28;20033;-67
2022/03/06 00:02:43;;;;;;;29.52;20.77;;;;;;;0.35;85.49;102676.25;5022683;28;20033;-67
2022/03/06 00:05:09;;;;;;;24.23;18.60;;;;;;;0.37;85.87;102685.88;5022331;28;20032;-67
2022/03/06 00:07:35;;;;;;;27.40;19.80;;;;;;;0.39;85.62;102676.38;5024848;28;20042;-67
2022/03/06 00:10:01;;;;;;;25.83;19.00;;;;;;;0.41;85.82;102671.19;5023710;28;20036;-67
2022/03/06 00:12:26;;;;;;;26.63;19.70;;;;;;;0.44;85.79;102670.41;5024184;28;21369;-67
2022/03/06 00:14:52;;;;;;;27.98;18.98;;;;;;;0.45;85.81;102672.16;5024990;28;20037;-67
2022/03/06 00:17:17;;;;;;;25.25;18.85;;;;;;;0.46;85.93;102663.50;5023571;28;20102;-67
2022/03/06 00:19:43;;;;;;;24.30;19.20;;;;;;;0.48;86.19;102677.47;5025366;28;20030;-67
2022/03/06 00:22:08;;;;;;;25.55;18.58;;;;;;;0.50;85.93;102670.56;5023887;28;20115;-66
2022/03/06 00:24:34;;;;;;;22.55;17.52;;;;;;;0.53;86.09;102675.84;5022461;28;20094;-65
2022/03/06 00:26:59;;;;;;;25.05;17.63;;;;;;;0.52;85.70;102666.25;5022427;28;20029;-66
2022/03/06 00:29:25;;;;;;;26.95;16.80;;;;;;;0.54;86.05;102672.38;5023938;28;20063;-66
2022/03/06 00:31:51;;;;;;;23.08;16.35;;;;;;;0.56;86.18;102673.34;5023310;28;20082;-66
2022/03/06 00:34:17;;;;;;;23.08;16.58;;;;;;;0.58;85.98;102679.47;5021234;28;20114;-67
2022/03/06 00:36:42;;;;;;;22.35;16.45;;;;;;;0.60;86.16;102669.09;5023711;28;20080;-67
2022/03/06 00:39:08;;;;;;;24.95;16.67;;;;;;;0.63;86.02;102677.88;5024266;28;20583;-67
2022/03/06 00:41:33;;;;;;;21.63;15.77;;;;;;;0.64;85.66;102677.00;5020289;28;20143;-67
2022/03/06 00:43:59;;;;;;;22.10;16.20;;;;;;;0.66;86.15;102669.25;5021871;28;20404;-66
2022/03/06 00:46:25;;;;;;;20.92;15.75;;;;;;;0.69;85.83;102684.09;5023527;28;20029;-66
2022/03/06 00:48:50;;;;;;;19.40;15.13;;;;;;;0.70;85.74;102678.03;5023690;28;20060;-66
2022/03/06 00:51:16;;;;;;;24.55;16.63;;;;;;;0.72;85.93;102674.63;5023866;28;20036;-67
2022/03/06 00:53:42;;;;;;;22.90;15.98;;;;;;;0.73;85.63;102672.88;5023577;28;20035;-66
2022/03/06 00:56:08;;;;;;;22.50;16.65;;;;;;;0.77;85.86;102680.81;5021281;28;20533;-66
2022/03/06 00:58:34;;;;;;;21.15;15.88;;;;;;;0.80;85.87;102680.00;5023356;28;20037;-66
2022/03/06 01:00:59;;;;;;;22.02;16.73;;;;;;;0.81;85.54;102687.88;5023213;28;20041;-67
2022/03/06 01:03:26;;;;;;;27.05;16.60;;;;;;;0.84;85.39;102689.69;5023187;28;20095;-66
2022/03/06 01:05:51;;;;;;;21.73;16.20;;;;;;;0.85;85.50;102687.94;5022129;28;20040;-67
2022/03/06 01:08:17;;;;;;;23.27;16.50;;;;;;;0.86;85.69;102690.59;5020717;28;20040;-67
2022/03/06 01:10:44;;;;;;;21.80;16.45;;;;;;;0.89;85.87;102695.91;5023136;28;20029;-67
2022/03/06 01:13:10;;;;;;;26.27;17.30;;;;;;;0.90;85.40;102688.94;5022309;28;20029;-67
2022/03/06 01:15:36;;;;;;;21.58;16.88;;;;;;;0.90;85.55;102686.31;5021857;28;20369;-66
2022/03/06 01:18:02;;;;;;;24.30;16.45;;;;;;;0.91;85.65;102688.09;5020235;28;20086;-67
2022/03/06 01:20:28;;;;;;;21.92;16.10;;;;;;;0.90;85.78;102695.03;5021113;28;20311;-67
2022/03/06 01:22:54;;;;;;;21.75;16.10;;;;;;;0.91;85.75;102699.41;5022249;28;20041;-67
2022/03/06 01:25:20;;;;;;;20.95;16.42;;;;;;;0.90;85.70;102705.47;5021733;28;20032;-66
2022/03/06 01:27:46;;;;;;;23.77;16.80;;;;;;;0.92;85.55;102698.56;5022435;28;20033;-66
2022/03/06 01:30:15;;;;;;;24.75;16.80;;;;;;;0.92;85.64;102709.00;5022700;28;20459;-65
2022/03/06 01:32:41;;;;;;;24.50;16.83;;;;;;;0.92;85.53;102706.38;5022702;28;20108;-66
2022/03/06 01:35:07;;;;;;;24.13;16.77;;;;;;;0.93;85.63;102708.16;5022547;28;20131;-66
2022/03/06 01:37:32;;;;;;;22.67;16.67;;;;;;;0.92;85.42;102711.59;5023235;28;20175;-66
2022/03/06 01:39:58;;;;;;;24.20;17.13;;;;;;;0.94;85.72;102715.13;5022387;28;20109;-66
2022/03/06 01:42:23;;;;;;;20.73;16.52;;;;;;;0.95;85.65;102710.81;5022258;28;20037;-66
2022/03/06 01:44:53;;;;;;;24.42;16.35;;;;;;;0.95;85.54;102700.38;5021929;28;20285;-66
2022/03/06 01:47:35;;;;;;;20.23;15.63;;;;;;;0.97;85.48;102713.47;5024528;28;20037;-66
2022/03/06 01:50:04;;;;;;;20.73;15.35;;;;;;;0.98;85.60;102715.22;5025975;28;20033;-66
2022/03/06 01:52:30;;;;;;;22.42;15.52;;;;;;;0.98;85.34;102712.59;5026432;28;20029;-66
2022/03/06 01:54:56;;;;;;;21.48;15.63;;;;;;;0.98;85.35;102721.28;5025412;28;20593;-66
2022/03/06 01:57:22;;;;;;;20.98;15.15;;;;;;;1.00;85.33;102719.63;5025873;28;20086;-66
2022/03/06 01:59:48;;;;;;;21.05;14.60;;;;;;;1.00;85.59;102724.84;5026360;28;20033;-66
2022/03/06 02:02:13;;;;;;;20.88;15.27;;;;;;;1.03;85.31;102718.81;5007068;28;20491;-66
2022/03/06 02:04:39;;;;;;;20.55;14.70;;;;;;;1.03;85.69;102713.63;5026577;28;20032;-66
2022/03/06 02:07:04;;;;;;;19.63;14.07;;;;;;;1.02;85.61;102712.72;5025876;28;20312;-66
2022/03/06 02:09:30;;;;;;;19.75;14.32;;;;;;;1.04;85.27;102720.59;5024972;28;20036;-66
2022/03/06 02:14:39;;;;;;;19.60;13.82;;;;;;;1.05;85.21;102707.56;5025853;28;20164;-66
2022/03/06 02:17:05;;;;;;;19.30;13.23;;;;;;;1.06;85.39;102711.06;5025362;28;20136;-66
2022/03/06 02:19:30;;;;;;;18.58;13.52;;;;;;;1.06;85.14;102711.06;5026318;28;20033;-66
2022/03/06 02:21:56;;;;;;;16.45;13.55;;;;;;;1.07;85.21;102710.22;5026315;28;20486;-67
2022/03/06 02:24:21;;;;;;;19.85;13.85;;;;;;;1.07;85.45;102711.09;5026737;28;20067;-66
2022/03/06 02:26:47;;;;;;;17.50;12.73;;;;;;;1.08;85.56;102710.25;5025928;28;20439;-66
2022/03/06 02:29:12;;;;;;;17.60;12.68;;;;;;;1.10;85.36;102699.88;5024894;28;20029;-66
2022/03/06 02:31:39;;;;;;;16.88;12.70;;;;;;;1.10;85.33;102710.31;5025466;28;20022;-66
2022/03/06 02:34:05;;;;;;;19.25;12.57;;;;;;;1.11;85.42;102706.84;5024514;28;20087;-66
2022/03/06 02:36:31;;;;;;;16.85;11.85;;;;;;;1.12;85.14;102705.09;5025860;28;21306;-66
2022/03/06 02:38:56;;;;;;;15.63;11.65;;;;;;;1.11;85.29;102709.47;5024096;28;20033;-66
2022/03/06 02:41:22;;;;;;;17.67;12.57;;;;;;;1.12;85.03;102706.00;5024678;28;20144;-66
2022/03/06 02:43:47;;;;;;;17.50;12.82;;;;;;;1.13;85.41;102705.16;5025349;28;20625;-66
2022/03/06 02:46:13;;;;;;;19.75;13.15;;;;;;;1.14;85.00;102704.28;5025148;28;20546;-66
2022/03/06 02:48:38;;;;;;;21.15;13.25;;;;;;;1.15;85.13;102699.97;5025598;28;20029;-66
2022/03/06 02:51:05;;;;;;;18.67;12.68;;;;;;;1.14;85.47;102696.47;5024363;28;20539;-66
2022/03/06 02:53:31;;;;;;;16.23;12.15;;;;;;;1.15;85.39;102707.81;5013709;28;20495;-66
2022/03/06 02:55:58;;;;;;;16.88;11.57;;;;;;;1.15;85.39;102707.81;5024611;28;20025;-66
2022/03/06 02:58:24;;;;;;;15.77;11.75;;;;;;;1.15;85.00;102703.44;5024174;28;20041;-67
2022/03/06 03:00:50;;;;;;;19.73;11.85;;;;;;;1.14;85.44;102700.81;5025554;28;20024;-66
2022/03/06 03:03:16;;;;;;;17.90;11.55;;;;;;;1.15;85.04;102697.38;5021121;28;20030;-67
2022/03/06 03:05:41;;;;;;;16.27;11.20;;;;;;;1.15;85.39;102702.59;5024587;28;21489;-66
2022/03/06 03:08:07;;;;;;;15.23;11.15;;;;;;;1.15;85.14;102693.00;5024153;28;21381;-66
2022/03/06 03:10:32;;;;;;;17.00;10.43;;;;;;;1.16;85.40;102694.78;5024320;28;20147;-66
2022/03/06 03:12:58;;;;;;;19.65;10.07;;;;;;;1.16;85.13;102702.63;5024979;28;21510;-67
2022/03/06 03:15:24;;;;;;;15.65;10.07;;;;;;;1.16;84.96;102701.72;5024408;28;20047;-66
2022/03/06 03:17:49;;;;;;;14.25;9.80;;;;;;;1.16;85.14;102702.63;5024673;28;20104;-66
2022/03/06 03:20:15;;;;;;;15.95;9.30;;;;;;;1.16;85.24;102692.19;5023038;28;20086;-66
2022/03/06 03:22:41;;;;;;;14.20;8.35;;;;;;;1.16;85.48;102702.63;5024710;28;20160;-66
2022/03/06 03:25:07;;;;;;;11.40;7.60;;;;;;;1.16;85.23;102697.41;5022829;28;20022;-66
2022/03/06 03:27:33;;;;;;;11.23;7.82;;;;;;;1.16;85.46;102694.78;5023859;28;20032;-66
2022/03/06 03:29:59;;;;;;;12.05;8.30;;;;;;;1.16;85.45;102696.50;5024979;28;20044;-66
2022/03/06 03:32:25;;;;;;;12.50;8.05;;;;;;;1.15;85.36;102706.06;5023708;28;20531;-66
2022/03/06 03:34:50;;;;;;;13.88;8.45;;;;;;;1.15;85.00;102707.81;5023975;28;20113;-66
2022/03/06 03:37:16;;;;;;;14.77;9.63;;;;;;;1.13;85.30;102710.38;5023707;28;20045;-66
2022/03/06 03:39:41;;;;;;;11.63;7.38;;;;;;;1.13;85.13;102707.75;5024820;28;20041;-66
2022/03/06 03:42:07;;;;;;;14.02;8.15;;;;;;;1.14;85.51;102709.50;5023307;28;20083;-66
2022/03/06 03:44:33;;;;;;;12.75;8.23;;;;;;;1.14;85.67;102712.13;5023859;28;20045;-67
2022/03/06 03:46:58;;;;;;;13.07;7.88;;;;;;;1.13;85.63;102710.38;5024653;28;20032;-67
2022/03/06 03:49:24;;;;;;;12.23;7.90;;;;;;;1.16;85.56;102717.38;5024083;28;20361;-67
2022/03/06 03:51:50;;;;;;;13.95;8.70;;;;;;;1.16;85.21;102710.47;5024494;28;20175;-67
2022/03/06 03:54:15;;;;;;;11.82;8.13;;;;;;;1.17;85.33;102722.66;5023703;28;20057;-67
2022/03/06 03:56:42;;;;;;;14.45;8.10;;;;;;;1.17;85.71;102717.44;5023475;28;20057;-67
2022/03/06 03:59:08;;;;;;;15.05;7.82;;;;;;;1.18;85.85;102719.19;5023429;28;20250;-67
2022/03/06 04:01:33;;;;;;;14.57;9.23;;;;;;;1.18;85.48;102713.06;5023387;28;20571;-67
2022/03/06 04:03:59;;;;;;;13.30;8.48;;;;;;;1.17;85.51;102720.03;5023251;28;20105;-67
2022/03/06 04:06:24;;;;;;;15.18;8.30;;;;;;;1.18;85.64;102716.59;5022991;28;20077;-67
2022/03/06 04:08:50;;;;;;;14.23;8.63;;;;;;;1.18;85.85;102713.97;5011093;28;20028;-67
2022/03/06 04:11:15;;;;;;;13.57;8.35;;;;;;;1.19;85.84;102720.94;5022750;28;20596;-67
2022/03/06 04:13:41;;;;;;;13.15;8.20;;;;;;;1.20;85.38;102712.28;5023246;28;20063;-67
2022/03/06 04:16:07;;;;;;;11.75;8.02;;;;;;;1.20;85.69;102717.50;5023249;28;20045;-67
2022/03/06 04:18:32;;;;;;;11.95;8.13;;;;;;;1.22;85.72;102720.16;5021659;28;20048;-67
2022/03/06 04:20:58;;;;;;;11.57;7.93;;;;;;;1.23;85.51;102719.28;5023875;28;20481;-67
2022/03/06 04:23:23;;;;;;;12.65;8.55;;;;;;;1.25;86.03;102721.94;5022850;28;20052;-67
2022/03/06 04:25:49;;;;;;;13.98;8.75;;;;;;;1.25;86.01;102725.41;5023436;28;20037;-67
2022/03/06 04:28:14;;;;;;;14.38;8.70;;;;;;;1.26;86.09;102735.03;5023374;28;20512;-67
2022/03/06 04:30:40;;;;;;;11.43;8.07;;;;;;;1.27;85.88;102736.81;5027276;28;20025;-67
2022/03/06 04:33:06;;;;;;;17.30;9.48;;;;;;;1.28;85.80;102735.94;5023795;28;20056;-67
2022/03/06 04:35:31;;;;;;;14.07;8.45;;;;;;;1.29;85.77;102742.94;5020108;28;20029;-67
2022/03/06 04:37:57;;;;;;;13.98;9.13;;;;;;;1.31;86.01;102746.44;5023444;28;20612;-67
2022/03/06 04:40:22;;;;;;;11.20;8.48;;;;;;;1.31;86.11;102741.22;5023385;28;20060;-67
2022/03/06 04:42:48;;;;;;;11.95;8.98;;;;;;;1.31;86.00;102746.44;5022136;28;20044;-67
2022/03/06 04:45:14;;;;;;;16.50;9.52;;;;;;;1.33;86.32;102754.31;5023711;28;20037;-67
2022/03/06 04:47:39;;;;;;;13.93;9.68;;;;;;;1.33;86.08;102751.72;5022488;28;20841;-67
2022/03/06 04:50:05;;;;;;;14.73;8.90;;;;;;;1.33;86.33;102754.31;5022235;28;20176;-67
2022/03/06 04:52:31;;;;;;;12.75;8.43;;;;;;;1.34;86.15;102754.38;5020230;28;20064;-67
2022/03/06 04:54:56;;;;;;;15.65;9.15;;;;;;;1.37;86.35;102760.50;5001497;28;20131;-67
2022/03/06 04:57:22;;;;;;;15.93;8.40;;;;;;;1.37;86.50;102757.88;5022678;28;20123;-67
2022/03/06 04:59:47;;;;;;;13.93;8.63;;;;;;;1.35;86.38;102760.44;5022227;28;20037;-67
2022/03/06 05:02:13;;;;;;;15.60;9.15;;;;;;;1.38;86.38;102759.66;5022045;28;20052;-67
2022/03/06 05:04:38;;;;;;;13.73;9.13;;;;;;;1.37;86.18;102764.00;5021676;28;20288;-67
2022/03/06 05:07:04;;;;;;;13.65;8.55;;;;;;;1.37;86.54;102761.41;5022878;28;20029;-67
2022/03/06 05:09:29;;;;;;;14.43;9.18;;;;;;;1.38;86.39;102755.31;5020010;28;20033;-67
2022/03/06 05:11:55;;;;;;;13.93;8.85;;;;;;;1.38;86.23;102763.16;5022995;28;20468;-67
2022/03/06 05:14:20;;;;;;;11.65;8.88;;;;;;;1.37;86.29;102764.00;5022506;28;20028;-67
2022/03/06 05:16:46;;;;;;;15.82;8.60;;;;;;;1.38;86.30;102767.47;5021603;28;20688;-67
2022/03/06 05:19:11;;;;;;;13.60;8.77;;;;;;;1.37;86.26;102763.09;5022205;28;20585;-67
2022/03/06 05:21:37;;;;;;;12.10;7.55;;;;;;;1.37;86.27;102766.63;5021911;28;20043;-67
2022/03/06 05:24:04;;;;;;;11.02;7.88;;;;;;;1.37;86.27;102781.38;5022951;28;20033;-67
2022/03/06 05:26:29;;;;;;;16.77;8.13;;;;;;;1.37;86.23;102776.16;5019519;28;20052;-67
2022/03/06 05:28:55;;;;;;;14.82;8.10;;;;;;;1.36;86.46;102775.25;5019639;28;20135;-67
2022/03/06 05:31:20;;;;;;;11.32;7.90;;;;;;;1.35;86.52;102777.00;5022667;28;20040;-67
2022/03/06 05:33:46;;;;;;;10.60;7.13;;;;;;;1.34;86.19;102777.88;5021899;28;20644;-67
2022/03/06 05:36:12;;;;;;;10.20;7.13;;;;;;;1.34;86.25;102776.97;5022402;28;20467;-67
2022/03/06 05:38:37;;;;;;;9.57;7.45;;;;;;;1.35;86.18;102786.56;5022305;28;20643;-67
2022/03/06 05:41:03;;;;;;;9.50;7.13;;;;;;;1.35;86.19;102786.56;5021720;28;20092;-67
2022/03/06 05:43:28;;;;;;;9.07;7.22;;;;;;;1.35;86.55;102795.28;5020214;28;20041;-67
2022/03/06 05:45:54;;;;;;;12.65;7.38;;;;;;;1.34;86.34;102792.63;5022222;28;20040;-67
2022/03/06 05:48:20;;;;;;;11.82;7.20;;;;;;;1.34;86.28;102793.53;5021989;28;20087;-67
2022/03/06 05:50:46;;;;;;;13.00;7.57;;;;;;;1.35;86.13;102797.00;5015638;28;20483;-67
2022/03/06 05:53:11;;;;;;;10.73;6.57;;;;;;;1.35;86.25;102804.81;5007056;28;20029;-67
2022/03/06 05:55:37;;;;;;;9.45;6.90;;;;;;;1.33;85.92;102802.19;5021160;28;20052;-67
2022/03/06 05:58:03;;;;;;;8.45;6.47;;;;;;;1.35;85.92;102812.66;5021569;28;20078;-67
2022/03/06 06:00:28;;;;;;;9.38;6.78;;;;;;;1.35;85.88;102808.34;5020805;28;20111;-67
2022/03/06 06:02:54;;;;;;;11.05;6.28;;;;;;;1.36;86.23;102819.63;5022514;28;20033;-67
2022/03/06 06:05:20;;;;;;;10.70;6.28;;;;;;;1.37;85.79;102815.31;5021160;28;20029;-67
2022/03/06 06:07:47;;;;;;;9.95;6.10;;;;;;;1.37;86.16;102824.03;5021508;28;20048;-68
2022/03/06 06:10:12;;;;;;;7.47;5.40;;;;;;;1.37;85.82;102818.81;5019851;28;20026;-67
2022/03/06 06:12:38;;;;;;;9.18;5.63;;;;;;;1.37;85.74;102824.03;5021546;28;20328;-67
2022/03/06 06:15:03;;;;;;;8.63;4.90;;;;;;;1.37;85.79;102826.66;5020018;28;20030;-68
2022/03/06 06:17:29;;;;;;;7.47;4.28;;;;;;;1.35;85.64;102826.59;5023083;28;20324;-68
2022/03/06 06:19:54;;;;;;;6.38;3.83;;;;;;;1.35;85.58;102825.72;5021274;28;20040;-68
2022/03/06 06:22:20;;;;;;;6.15;3.90;;;;;;;1.34;84.95;102830.06;5021781;28;20730;-67
2022/03/06 06:24:45;;;;;;;5.70;3.75;;;;;;;1.35;85.18;102839.66;5020921;28;20047;-67
2022/03/06 06:27:11;;;;;;;5.32;3.95;;;;;;;1.35;85.05;102833.53;5022226;28;20759;-67
2022/03/06 06:29:37;;;;;;;7.03;3.80;;;;;;;1.36;84.73;102837.91;5022738;28;20102;-68
2022/03/06 06:32:02;;;;;;;6.05;4.22;;;;;;;1.34;84.38;102843.13;5021833;28;20118;-67
2022/03/06 06:34:28;;;;;;;8.35;3.83;;;;;;;1.35;84.31;102843.97;5024153;28;20091;-67
2022/03/06 06:36:57;;;;;;;6.40;3.80;;;;;;;1.35;84.16;102849.19;5026023;28;20676;-67
2022/03/06 06:39:25;;;;;;;3.88;3.50;;;;;;;1.35;84.11;102849.19;5025269;28;20033;-67
2022/03/06 06:41:50;;;;;;;5.72;3.28;;;;;;;1.34;83.44;102852.66;5022572;28;20110;-68
2022/03/06 06:44:16;;;;;;;4.40;3.30;;;;;;;1.35;83.68;102859.63;5025204;28;20049;-68
2022/03/06 06:46:42;;;;;;;5.68;3.08;;;;;;;1.35;83.31;102860.53;5022964;28;20029;-67
2022/03/06 06:49:07;;;;;;;5.93;3.13;;;;;;;1.37;83.09;102860.59;5025464;28;20040;-67
2022/03/06 06:51:34;;;;;;;3.97;2.90;;;;;;;1.38;83.27;102869.28;5024742;28;20388;-67
2022/03/06 06:53:59;;;;;;;4.65;2.97;;;;;;;1.37;82.99;102865.81;5024838;28;20025;-68
2022/03/06 06:56:25;;;;;;;7.00;3.17;;;;;;;1.38;82.97;102869.28;5024667;28;20033;-67
2022/03/06 06:58:50;;;;;;;7.00;3.17;;;;;;;1.38;82.72;102870.19;5024990;28;20515;-68
2022/03/06 07:01:17;;;;;;;5.15;3.08;;;;;;;1.39;82.95;102873.66;5023485;28;20170;-68
2022/03/06 07:03:42;;;;;;;5.60;2.90;;;;;;;1.39;82.45;102879.78;5025477;28;21675;-67
2022/03/06 07:06:08;;;;;;;4.00;3.03;;;;;;;1.39;82.68;102879.78;5025044;28;20098;-68
2022/03/06 07:08:33;;;;;;;5.47;2.88;;;;;;;1.39;82.24;102881.50;5023642;28;20037;-67
2022/03/06 07:10:59;;;;;;;3.97;2.90;;;;;;;1.39;82.24;102886.72;5024003;28;20599;-67
2022/03/06 07:13:24;;;;;;;6.35;2.65;;;;;;;1.40;81.83;102886.75;5024350;28;20033;-67
2022/03/06 07:15:50;;;;;;;4.18;2.58;;;;;;;1.38;81.62;102878.00;5023037;28;20574;-67
2022/03/06 07:18:15;;;;;;;4.03;2.90;;;;;;;1.39;81.62;102894.53;5024913;28;20527;-68
2022/03/06 07:20:41;;;;;;;5.13;2.70;;;;;;;1.35;81.68;102891.88;5024683;28;20049;-68
2022/03/06 07:23:06;;;;;;;7.18;2.50;;;;;;;1.33;81.07;102895.28;5023777;28;20548;-68
2022/03/06 07:25:32;;;;;;;3.03;2.30;;;;;;;1.32;80.78;102880.47;5021990;28;20037;-68
2022/03/06 07:27:58;;;;;;;6.35;2.70;;;;;;;1.30;80.52;102883.03;5023190;28;20040;-67
2022/03/06 07:30:23;;;;;;;2.80;2.45;;;;;;;1.30;80.35;102890.00;5024220;28;20907;-68
2022/03/06 07:32:52;;;;;;;2.88;2.58;;;;;;;1.29;80.73;102893.41;5024624;28;20052;-68
2022/03/06 07:35:19;;;;;;;4.25;2.70;;;;;;;1.29;80.52;102890.81;5024829;28;20040;-68
2022/03/06 07:37:45;;;;;;;3.70;2.67;;;;;;;1.29;80.24;102888.19;5024108;28;20047;-68
2022/03/06 07:40:14;;;;;;;4.15;2.47;;;;;;;1.29;80.16;102898.63;5018350;28;20116;-68
2022/03/06 07:42:39;;;;;;;5.13;2.38;;;;;;;1.32;80.20;102903.94;5023698;28;20044;-68
2022/03/06 07:45:05;;;;;;;5.35;2.70;;;;;;;1.31;79.91;102900.44;5024340;28;20546;-68
2022/03/06 07:47:31;;;;;;;2.67;2.40;;;;;;;1.33;80.32;102908.31;5023364;28;20446;-68
2022/03/06 07:49:56;;;;;;;4.28;2.38;;;;;;;1.33;79.83;102917.06;5022751;28;20103;-68
2022/03/06 07:52:22;;;;;;;4.07;2.40;;;;;;;1.36;79.93;102918.84;5023918;28;20029;-68
2022/03/06 07:54:48;;;;;;;4.07;2.40;;;;;;;1.36;79.79;102908.38;5023591;28;20121;-68
2022/03/06 07:57:14;;;;;;;4.20;2.38;;;;;;;1.38;79.61;102906.72;5022994;28;20035;-68
2022/03/06 07:59:39;;;;;;;3.58;2.40;;;;;;;1.39;79.59;102916.31;5023065;28;20029;-68
2022/03/06 08:02:05;;;;;;;4.53;2.88;;;;;;;1.40;79.54;102910.25;5021120;28;20749;-68
2022/03/06 08:04:30;;;;;;;7.00;2.78;;;;;;;1.41;79.34;102906.78;5023868;28;20407;-68
2022/03/06 08:06:56;;;;;;;4.38;2.45;;;;;;;1.42;79.18;102905.94;5023689;28;20521;-68
2022/03/06 08:09:24;;;;;;;5.28;2.63;;;;;;;1.44;79.02;102908.59;5023398;28;20025;-68
2022/03/06 08:11:50;;;;;;;5.18;2.50;;;;;;;1.46;78.84;102906.91;5023080;28;20631;-68
2022/03/06 08:14:16;;;;;;;6.65;2.60;;;;;;;1.48;79.17;102900.88;5023181;28;20122;-68
2022/03/06 08:16:41;;;;;;;4.65;2.97;;;;;;;1.50;78.63;102903.53;5024692;28;20119;-68
2022/03/06 08:19:07;;;;;;;5.25;2.78;;;;;;;1.49;78.31;102894.81;5023609;28;20082;-68
2022/03/06 08:21:32;;;;;;;3.55;2.30;;;;;;;1.52;78.58;102901.84;5022390;28;20033;-68
2022/03/06 08:23:58;;;;;;;3.67;2.50;;;;;;;1.53;78.16;102906.22;5024274;28;20117;-67
2022/03/06 08:26:23;;;;;;;3.40;2.65;;;;;;;1.58;78.17;102916.81;5022454;28;20020;-68
2022/03/06 08:28:50;;;;;;;3.90;2.47;;;;;;;1.57;78.23;102913.28;5022525;28;20037;-68
2022/03/06 08:31:15;;;;;;;3.67;2.40;;;;;;;1.61;77.94;102922.09;5023248;28;20559;-68
2022/03/06 08:33:41;;;;;;;4.60;2.45;;;;;;;1.62;77.98;102924.75;5016956;28;20036;-68
2022/03/06 08:36:06;;;;;;;4.38;2.53;;;;;;;1.66;77.83;102930.03;5022636;28;20037;-68
2022/03/06 08:38:32;;;;;;;4.32;2.75;;;;;;;1.67;77.72;102923.97;5023907;28;20109;-68
2022/03/06 08:40:59;;;;;;;6.18;2.72;;;;;;;1.68;77.47;102926.63;5022624;28;20130;-68
2022/03/06 08:43:25;;;;;;;7.03;2.80;;;;;;;1.71;77.37;102929.31;5022993;28;20052;-68
2022/03/06 08:45:50;;;;;;;3.92;2.75;;;;;;;1.73;77.49;102918.91;5021617;28;20675;-68
2022/03/06 08:48:16;;;;;;;6.35;2.80;;;;;;;1.74;76.97;102918.94;5022595;28;20119;-68
2022/03/06 08:50:41;;;;;;;4.60;3.00;;;;;;;1.76;77.16;102919.84;5022758;28;20028;-68
2022/03/06 08:53:07;;;;;;;4.10;2.78;;;;;;;1.80;77.09;102927.78;5023317;28;20036;-68
2022/03/06 08:55:32;;;;;;;3.97;2.53;;;;;;;1.82;76.78;102920.84;5021141;28;20033;-68
2022/03/06 08:57:58;;;;;;;5.50;2.67;;;;;;;1.85;76.91;102928.78;5023148;28;20021;-68
2022/03/06 09:00:24;;;;;;;3.80;2.80;;;;;;;1.87;76.41;102924.47;5023398;28;20392;-68
2022/03/06 09:02:50;;;;;;;4.43;2.60;;;;;;;1.89;76.22;102938.44;5021856;28;20047;-68
2022/03/06 09:05:16;;;;;;;4.18;2.63;;;;;;;1.90;76.22;102935.88;5022521;28;20530;-68
2022/03/06 09:07:42;;;;;;;5.13;2.85;;;;;;;1.93;75.96;102935.06;5022785;28;20033;-68
2022/03/06 09:10:09;;;;;;;6.32;2.90;;;;;;;1.94;75.97;102942.06;5021579;28;20033;-68
2022/03/06 09:12:34;;;;;;;6.18;2.83;;;;;;;1.96;76.05;102929.91;5020675;28;20284;-68
2022/03/06 09:15:00;;;;;;;5.38;2.90;;;;;;;2.00;76.11;102931.75;5021619;28;20036;-68
2022/03/06 09:17:25;;;;;;;5.88;2.85;;;;;;;2.03;76.08;102937.03;5020295;28;20024;-68
2022/03/06 09:19:51;;;;;;;4.43;2.50;;;;;;;2.07;75.96;102947.59;5022337;28;20561;-68
2022/03/06 09:22:16;;;;;;;4.45;2.72;;;;;;;2.08;75.72;102944.13;5022054;28;20033;-68
2022/03/06 09:24:42;;;;;;;5.15;2.85;;;;;;;2.10;75.68;102947.66;5021472;28;20040;-67
2022/03/06 09:27:08;;;;;;;3.20;2.90;;;;;;;2.11;75.53;102955.53;5023350;28;20168;-67
2022/03/06 09:29:33;;;;;;;5.93;2.80;;;;;;;2.13;75.23;102948.59;5019905;28;20358;-68
2022/03/06 09:31:59;;;;;;;5.38;3.20;;;;;;;2.16;75.22;102956.53;5021755;28;20171;-67
2022/03/06 09:34:24;;;;;;;4.63;2.63;;;;;;;2.17;74.83;102957.41;5022455;28;20116;-67
2022/03/06 09:36:50;;;;;;;9.65;3.25;;;;;;;2.20;74.92;102956.59;5003293;28;20037;-68
2022/03/06 09:39:16;;;;;;;3.08;2.70;;;;;;;2.21;74.79;102953.13;5021482;28;20112;-67
2022/03/06 09:41:42;;;;;;;5.70;3.10;;;;;;;2.22;74.79;102952.31;5019293;28;20050;-68
2022/03/06 09:44:12;;;;;;;4.30;2.50;;;;;;;2.26;74.55;102959.34;5022623;28;20061;-67
2022/03/06 09:46:38;;;;;;;4.47;2.92;;;;;;;2.27;74.42;102955.88;5022693;28;20654;-67
2022/03/06 09:49:06;;;;;;;4.40;3.05;;;;;;;2.29;74.30;102949.84;5022102;28;20091;-67
2022/03/06 09:51:38;;;;;;;5.22;2.90;;;;;;;2.32;74.31;102962.13;5037340;28;20047;-68
2022/03/06 09:54:04;;;;;;;5.43;3.20;;;;;;;2.34;74.46;102954.31;5021832;28;20037;-67
2022/03/06 09:56:30;;;;;;;5.10;3.20;;;;;;;2.35;74.18;102958.69;5022880;28;20407;-67
2022/03/06 09:58:55;;;;;;;4.88;3.05;;;;;;;2.37;74.00;102957.88;5021860;28;20091;-67
2022/03/06 10:01:21;;;;;;;3.88;2.90;;;;;;;2.38;74.15;102959.63;5021643;28;20112;-68
2022/03/06 10:03:46;;;;;;;3.65;3.00;;;;;;;2.43;74.21;102951.88;5002956;28;20033;-68
2022/03/06 10:06:12;;;;;;;5.15;2.92;;;;;;;2.45;74.05;102958.03;5022024;28;20104;-68
2022/03/06 10:08:37;;;;;;;5.80;3.15;;;;;;;2.49;74.20;102957.25;5023312;28;20554;-67
2022/03/06 10:11:06;;;;;;;3.92;2.80;;;;;;;2.52;74.16;102953.84;5026075;28;20047;-68
2022/03/06 10:13:40;;;;;;;7.10;3.22;;;;;;;2.55;74.17;102959.13;5026358;28;20049;-68
2022/03/06 10:16:18;;;;;;;3.95;2.88;;;;;;;2.59;74.16;102950.50;5014404;28;20033;-68
2022/03/06 10:18:48;;;;;;;6.10;3.40;;;;;;;2.63;74.20;102949.72;5011264;28;20044;-68
2022/03/06 10:21:31;;;;;;;6.00;3.28;;;;;;;2.67;74.14;102958.53;5026155;28;20069;-67
2022/03/06 10:24:01;;;;;;;4.97;3.03;;;;;;;2.69;73.80;102959.44;5025240;28;20040;-68
2022/03/06 10:26:29;;;;;;;4.22;3.00;;;;;;;2.72;74.09;102956.88;5026736;28;20677;-68
2022/03/06 10:29:05;;;;;;;5.03;2.85;;;;;;;2.77;73.87;102960.47;5025090;28;20041;-67
2022/03/06 10:31:34;;;;;;;6.03;3.30;;;;;;;2.77;73.89;102952.63;5025922;28;20103;-68
2022/03/06 10:34:07;;;;;;;5.75;3.20;;;;;;;2.79;73.79;102957.91;5024673;28;20138;-68
2022/03/06 10:36:34;;;;;;;7.78;3.40;;;;;;;2.80;73.41;102965.78;5024657;28;20641;-68
2022/03/06 10:39:00;;;;;;;7.72;2.92;;;;;;;2.83;73.62;102968.47;5025950;28;20137;-68
2022/03/06 10:41:35;;;;;;;6.05;3.13;;;;;;;2.84;73.64;102965.00;5023819;28;20049;-68
2022/03/06 10:44:01;;;;;;;4.68;2.88;;;;;;;2.88;73.46;102973.78;5029480;28;20385;-68
2022/03/06 10:46:26;;;;;;;3.97;3.17;;;;;;;2.89;73.45;102962.47;5024357;28;20666;-68
2022/03/06 10:48:57;;;;;;;5.22;3.30;;;;;;;2.95;73.37;102966.97;5025796;28;20033;-68
2022/03/06 10:51:22;;;;;;;5.57;3.10;;;;;;;2.97;73.40;102960.91;5023485;28;20053;-68
2022/03/06 10:53:52;;;;;;;4.90;3.17;;;;;;;3.01;73.49;102963.56;5024582;28;20063;-68
2022/03/06 10:56:17;;;;;;;7.95;3.33;;;;;;;3.04;73.51;102966.28;5025874;28;20029;-68
2022/03/06 10:58:45;;;;;;;7.30;3.08;;;;;;;3.07;73.40;102961.09;5024248;28;20021;-68
2022/03/06 11:01:11;;;;;;;6.88;3.45;;;;;;;3.09;73.33;102965.50;5023963;28;20103;-68
2022/03/06 11:03:38;;;;;;;5.20;3.20;;;;;;;3.12;73.28;102955.06;5024687;28;20038;-68
2022/03/06 11:06:05;;;;;;;4.78;2.97;;;;;;;3.17;73.31;102952.56;5024457;28;20033;-68
2022/03/06 11:08:31;;;;;;;5.00;3.22;;;;;;;3.21;73.48;102948.28;5025219;28;20185;-68
2022/03/06 11:10:57;;;;;;;9.77;3.63;;;;;;;3.25;73.17;102955.31;5024385;28;20029;-68
2022/03/06 11:13:23;;;;;;;6.07;3.40;;;;;;;3.28;73.30;102952.78;5024628;28;20040;-68
2022/03/06 11:15:49;;;;;;;3.85;3.35;;;;;;;3.32;73.14;102962.44;5025573;28;20419;-68
2022/03/06 11:18:15;;;;;;;8.75;3.90;;;;;;;3.36;73.24;102958.13;5024289;28;20378;-69
2022/03/06 11:20:43;;;;;;;8.50;3.22;;;;;;;3.40;73.07;102960.84;5024263;28;20082;-68
2022/03/06 11:23:27;;;;;;;5.10;3.17;;;;;;;3.46;73.33;102956.56;5024298;28;20033;-69